Startpagina
METAR-TAF:

METAR-TAF

Vliegvelden :

Luchthaven Poznań-Henryk Wieniawski

Poznań, Polen

breedte: 52-25N, lengte: 016-50E, hoogte: 86 m

Actueel weer

Dit bericht is 36 minuten geleden gemaakt, om 23:30 UTC
Wind 6 kt uit het noorden
Temperatuur 12°C
Vochtigheid 62%
Druk 1021 hPa
Zicht 10 km of meer
geen wolken onder 1500 m en geen cumulonimbus

METAR: EPPO 312330Z 01006KT CAVOK 12/05 Q1021

Tijdstip: 02:06 (00:06 UTC)

Verwachting

Dit bericht is 36 minuten geleden gemaakt, om 23:30 UTC
Verwachting geldig van 01 om 00 UTC tot 01 om 24 UTC
Wind 7 kt uit het noordnoordoosten
Zicht 10 km of meer
geen wolken onder 1500 m en geen cumulonimbus
Tijdelijke
van 01 om 09 UTC tot 01 om 16 UTC
Wind 15 kt uit het noordoosten met uitschieters tot 27 kt

TAF: EPPO 312330Z 0100/0124 02007KT CAVOK TEMPO 0109/0116 04015G27KT

Waarnemingen en weersverwachtingen van meer dan 4000 vliegvelden (METAR en TAF).

De beschikbare stations zijn de gele en rode punten op de kaart.

Ga met uw muis naar het station om de naam te zien.

Klik dan om waarnemingen en weersverwachtingen te zien.

kaart wijzigen: klik op de groene knoppen met een zwart kruis om in te zoomen, op de groene knop met een streepje om uit te zoomen of op de groene pijlen voor aangrenzende kaarten.


METAR-TAF: